Plessisville, Canada
Current Conditions -  °F | °C
As of 9:00 AM on Thursday 27 Nov 2014 (Local Time) from CYQB Reporting Station
Broken Clouds Broken Clouds  
Wind Chill: -6°   Ceiling: 18000
Heat Index: -3°   Visibility: 30mi
Dew Point: -10°   Wind: 5mph
Humidity: 59%   Direction: 320°NW
Pressure: 29.98"   Gusts: NA
Location:  46.22°N, 71.77°W
Report Text: CYQB 271400Z 32004KT 30SM FEW030 SCT100 BKN180 M03/M10 A2998 RMK SC1AC2AC2 SLP155
Loading
Personal Weather Stations






























Interactive Weather Map New forecast layout! Learn more

10-Day Weather Forecast

Advertisements
Track Severe Weather on mobile